Anchor Point, AK (99556)

6:47 PM AKST on February 10, 2016 (GMT -0900)
East Hill | | Change Station
CLOSE
Current Station
Personal Weather Station
Location: Homer, AK
Elevation: 597 ft
Nearby Weather Stations

Elev 597 ft 59.66 °N, 151.52 °W | Updated 1 minute ago

Mostly Cloudy
Mostly Cloudy
39.3 °F
Feels Like 39 °F
N
0.0
Wind Variable Wind from WSW
Gusts 3.0 mph

Today
High -- | Low -- °F
--% Chance of Precip.
Yesterday
High -- | Low -- °F
Precip. -- in
Pressure 29.43 in
Visibility 10.0 miles
Clouds Mostly Cloudy 5500 ft
Mostly Cloudy 12000 ft
Windchill 39 °F
Dew Point 34 °F
Humidity 80%
Rainfall 0.00 in
Snow Depth Not available.
8:58 AM 5:45 PM
Waxing Crescent, 9% visible
METAR PAHO 110255Z 27003KT 10SM BKN055 BKN120 04/01 A2943
Pressure 29.43 in
Visibility 10.0 miles
Clouds Mostly Cloudy 5500 ft
Mostly Cloudy 12000 ft
Windchill 39 °F
Dew Point 34 °F
Humidity 80%
Rainfall 0.00 in
Snow Depth Not available.
8:58 AM 5:45 PM
Waxing Crescent, 9% visible
METAR PAHO 110255Z 27003KT 10SM BKN055 BKN120 04/01 A2943

10-Day Weather Forecast

Almanac

Astronomy

Feb. 10, 2016 Rise Set
Actual Time
Civil Twilight
Nautical Twilight
Astronomical Twilight
Moon
Length of Visible Light
Length of Day
Tomorrow will be .
, % of the Moon is Illuminated

Today's Extremes

State Highs State Lows

Community

WunderPhotos

Upload Photos

1,892,000 photos uploaded!

WunderBlog® & News

Nearby

Air Quality

  Air Quality AQ Index Pollutant
Not available.

Snow Depth

Station Depth Elevation

Earthquake Activity

City Distance Mag. Time & Date
Minimum magnitude displayed is 2.5.

Coastal Water Temperatures

Place Temperature

Stations

Nearby Weather Stations

Station Location Temp. Windchill Dew Point Humidity Wind Precip. Elev Updated Type
                   

Watches & Warnings

There are currently no watches in effect.